Terminal Aerodrome Forecast
Issued by NWS

Home | Current Version | Previous Version | Text Only | Print | Product List | Glossary On
Versions: 1 2 3 4 5 6 7 8 9 10 11 12 13
302
FTUS46 KLOX 251302 AAA
TAFWJF
TAF AMD
KWJF 251302Z 2513/2612 22014KT P6SM SCT150
     FM251600 29022G32KT P6SM SCT150
     FM260400 29015G25KT P6SM BKN200=

USA.gov is the U.S. government's official web portal to all federal, state and local government web resources and services.